Tiempo atmosférico en la estación meteorológica de Bera, Navarra (78 m.)

Fecha
DESCASC
Temp. máxima en grados centígrados (hora)
DESCASC
Temp. mínima en grados centígrados (hora)
DESCASC
Temp. media en grados centígrados
DESCASC
Racha de viento máxima en m/sg (hora)
DESCASC
Velocidad máxima media en intervalos de 10 minutos(hora)
DESCASC
Precipitaciones diarias en mm
DESCASC
Precipitaciones de 00:00 a 06:00 en mm
DESCASC
Precipitaciones de 06:00 a 12:00 en mm
DESCASC
Precipitaciones de 12:00 a 18:00 en mm
DESCASC
Precipitaciones de 18:00 a 24:00 en mm
DESCASC
17-09-2017 19.1 (17:40) 8.2 (03:00) 13.7 7.78 (12:50) 3.89 (13:40) 0.4 0 0 0 0.4
16-09-2017 16.2 (17:10) 8.7 (23:10) 12.5 7.78 (12:40) 3.61 (12:20) 17.2 9.8 1.6 5.8 0
15-09-2017 17.9 (14:00) 10.4 (00:50) 14.1 9.44 (15:30) 4.17 (14:20) 30 0 8 16.6 5.4
14-09-2017 20.5 (16:20) 11.3 (00:00) 15.9 9.72 (10:10) 4.17 (08:00) 8.4 0 8.4 0 0
13-09-2017 25.8 (14:00) 13.7 (00:00) 19.7 6.39 (15:10) 3.33 (15:20) 0 0 0 0 0
12-09-2017 22.3 (17:10) 13.8 (00:00) 18 6.11 (16:50) 3.06 (16:50) 5.2 3.2 2 0 0
11-09-2017 19.9 (15:40) 14.9 (00:00) 17.4 8.61 (10:30) 3.33 (14:20) 23.2 4.8 11.8 2.4 4.2
10-09-2017 18.3 (16:50) 12.2 (00:00) 15.2 12.5 (06:00) 4.44 (06:00) 72.2 45 22.8 4.4 0
09-09-2017 18.2 (13:50) 12.7 (00:00) 15.5 10.83 (06:10) 3.89 (06:10) 47.4 8.8 10.4 16.4 11.8
08-09-2017 23.9 (14:50) 11.7 (00:00) 17.8 6.39 (16:00) 3.33 (15:40) 0 0 0 0 0
07-09-2017 21.6 (15:00) 13.6 (00:00) 17.6 6.94 (15:10) 2.22 (14:50) 0 0 0 0 0
06-09-2017 21.8 (15:10) 16.5 (00:00) 19.1 5.28 (08:40) 2.5 (08:50) 3.6 0 3.4 0.2 0
05-09-2017 25 (13:20) 15.4 (00:00) 20.2 5.83 (13:30) 2.5 (13:20) 0 0 0 0 0
04-09-2017 25 (17:40) 15.7 (00:00) 20.3 6.11 (16:30) 2.78 (16:40) 5.4 5.2 0.2 0 0
03-09-2017 26.2 (15:40) 12.2 (00:00) 19.2 3.33 (15:40) 1.39 (16:00) 0.2 0 0 0 0.2
02-09-2017 22.5 (17:20) 12.4 (00:00) 17.4 5.83 (16:50) 3.06 (16:50) 2.4 2.2 0.2 0 0
01-09-2017 20.6 (12:50) 12.6 (00:00) 16.6 7.78 (13:10) 4.17 (13:10) 3 0 0 2.8 0.2
31-08-2017 21.9 (16:00) 13.1 (00:00) 17.5 8.06 (00:40) 3.06 (00:40) 6.6 6 0.6 0 0
30-08-2017 26.6 (12:50) 17.2 (00:00) 21.9 10.83 (18:40) 3.61 (18:40) 54.4 0 0 8.4 46
29-08-2017 26.7 (14:50) 17.8 (00:00) 22.3 7.22 (16:30) 3.33 (16:40) 11.8 9.4 1.8 0.6 0
28-08-2017 32 (16:20) 16 (00:00) 24 10.28 (19:20) 5 (19:10) 4 0 0 0 4
27-08-2017 27.6 (13:20) 16.1 (00:00) 21.9 7.22 (21:30) 2.22 (21:30) 2.8 0 0 2.8 0
26-08-2017 30.4 (14:50) 19.1 (00:00) 24.8 5.83 (19:40) 3.06 (19:40) 0.2 0.2 0 0 0
25-08-2017 26.6 (12:40) 18.8 (00:00) 22.7 6.67 (16:30) 3.33 (16:10) 0 0 0 0 0
24-08-2017 27.6 (15:30) 18.5 (00:00) 23.1 5.83 (16:00) 2.78 (16:00) 0 0 0 0 0
23-08-2017 24.8 (13:10) 17.8 (00:00) 21.3 5.56 (14:10) 3.06 (14:10) 0 0 0 0 0
22-08-2017 30.9 (12:10) 15.8 (00:00) 23.3 7.78 (14:00) 3.61 (14:10) 0 0 0 0 0

Gráficas

Temp. máximas Temp. mínimas Temp. medias Precipitaciones Rachas de viento máximas Velocidades máximas media en intervalos de 10 minutos

Datos horarios

Fecha y hora oficial Temperatura (ºC) Velocidad del viento (km/h) Dirección del viento Racha (km/h) Dirección de racha Precipitación (mm) Presión (hPa) Tendencia (hPa) Humedad (%)
2017-09-20 23:00:00 11.2 0 Calma 3 Este 0 -- -- 94
2017-09-20 22:00:00 12.4 0 Calma 3 Sudeste 0 -- -- 92
2017-09-20 21:00:00 13.9 0 Calma 4 Sudeste 0 -- -- 88
2017-09-20 20:00:00 16.7 0 Calma 5 Sudeste 0 -- -- 81
2017-09-20 19:00:00 20.9 3 Este 12 Este 0 -- -- 63
2017-09-20 18:00:00 22.3 6 Sudeste 16 Nordeste 0 -- -- 54
2017-09-20 17:00:00 22.7 6 Este 16 Nordeste 0 -- -- 53
2017-09-20 16:00:00 22.6 6 Nordeste 16 Nordeste 0 -- -- 55
2017-09-20 15:00:00 22.4 5 Sudeste 10 Nordeste 0 -- -- 53
2017-09-20 14:00:00 21.3 2 Sur 6 Oeste 0 -- -- 58
2017-09-20 13:00:00 18.7 2 Sudoeste 5 Noroeste 0 -- -- 67
2017-09-20 12:00:00 15.8 3 Noroeste 5 Oeste 0 -- -- 79
2017-09-20 11:00:00 13 2 Noroeste 5 Noroeste 0 -- -- 85
2017-09-20 10:00:00 10.3 0 Calma 4 Noroeste 0 -- -- 94
2017-09-20 09:00:00 9.9 3 Oeste 8 Sudoeste 0 -- -- 96
2017-09-20 08:00:00 9.8 3 Sudoeste 8 Sudoeste 0 -- -- 96
2017-09-20 07:00:00 9.9 0 Calma 6 Oeste 0 -- -- 97
2017-09-20 06:00:00 9.9 0 Calma 4 Nordeste 0 -- -- 98
2017-09-20 05:00:00 9.9 0 Calma 5 Este 0 -- -- 98
2017-09-20 04:00:00 10 0 Calma 4 Este 0 -- -- 98
2017-09-20 03:00:00 10.1 0 Calma 3 Sur 0 -- -- 98
2017-09-20 02:00:00 10.2 0 Calma 3 Nordeste 0 -- -- 98
2017-09-20 01:00:00 9.8 0 Calma 2 Norte 0 -- -- 98
2017-09-20 00:00:00 9.3 0 Calma 2 Sudeste 0 -- -- 97
2017-09-19 23:00:00 9.6 0 Calma 2 Sudeste 0 -- -- 94
2017-09-19 22:00:00 10.8 0 Calma 4 Sudeste 0 -- -- 93
2017-09-19 21:00:00 12.1 2 Sudeste 5 Sudeste 0 -- -- 90
2017-09-19 20:00:00 14.7 0 Calma 10 Noroeste 0 -- -- 83
2017-09-19 19:00:00 17.5 4 Norte 13 Noroeste 0 -- -- 67
2017-09-19 18:00:00 18.6 5 Norte 15 Norte 0 -- -- 62
2017-09-19 17:00:00 19.4 6 Norte 23 Noroeste 0 -- -- 59
2017-09-19 16:00:00 19.1 6 Norte 20 Noroeste 0 -- -- 62
2017-09-19 15:00:00 18.4 10 Noroeste 22 Noroeste 0 -- -- 66
2017-09-19 14:00:00 18.4 8 Norte 21 Norte 0 -- -- 67
2017-09-19 13:00:00 18.7 8 Norte 24 Oeste 0 -- -- 67
2017-09-19 12:00:00 16.4 0 Calma 7 Noroeste 0 -- -- 85
2017-09-19 11:00:00 14.7 3 Sudeste 5 Sur 0 -- -- 93
2017-09-19 10:00:00 13.3 0 Calma 4 Sudoeste 0 -- -- 96
2017-09-19 09:00:00 12.8 2 Oeste 6 Oeste 0 -- -- 98
2017-09-19 08:00:00 12.7 3 Oeste 6 Sudoeste 0 -- -- 97
2017-09-19 07:00:00 12.8 3 Sudoeste 7 Oeste 0 -- -- 97
2017-09-19 06:00:00 13.2 4 Oeste 8 Sudoeste 0 -- -- 97
2017-09-19 05:00:00 13.5 0 Calma 5 Oeste 0 -- -- 98
2017-09-19 04:00:00 13.7 3 Sudoeste 5 Sudoeste 0 -- -- 97
2017-09-19 03:00:00 13.9 0 Calma 7 Noroeste 0 -- -- 97
2017-09-19 02:00:00 13.9 0 Calma 6 Sudoeste 0 -- -- 97
2017-09-19 01:00:00 14.3 0 Calma 4 Noroeste 0.2 -- -- 97
2017-09-19 00:00:00 14.5 0 Calma 3 Sudeste 0 -- -- 96
2017-09-18 23:00:00 14.8 0 Calma 4 Sudoeste 0 -- -- 97
2017-09-18 22:00:00 14.8 0 Calma 3 Este 0.2 -- -- 96
2017-09-18 21:00:00 14.9 0 Calma 3 Sur 0 -- -- 95
2017-09-18 20:00:00 15.4 0 Calma 6 Sur 0 -- -- 94
2017-09-18 19:00:00 15.8 2 Sur 6 Nordeste 0.8 -- -- 91
2017-09-18 18:00:00 17 3 Norte 9 Noroeste 0.2 -- -- 86
2017-09-18 17:00:00 17.2 3 Sudoeste 8 Oeste 0 -- -- 86
2017-09-18 16:00:00 17.3 0 Calma 9 Nordeste 0.2 -- -- 84
2017-09-18 15:00:00 17.2 3 Norte 13 Norte 0 -- -- 83
2017-09-18 14:00:00 17.6 4 Norte 9 Nordeste 0 -- -- 82
2017-09-18 13:00:00 16.8 0 Calma 4 Nordeste 0 -- -- 85
2017-09-18 12:00:00 15.9 0 Calma 4 Noroeste 0 -- -- 88
2017-09-18 11:00:00 14.7 2 Oeste 4 Oeste 0 -- -- 96
2017-09-18 10:00:00 13.6 0 Calma 2 Nordeste 0.4 -- -- 98
2017-09-18 09:00:00 13.4 0 Calma 3 Noroeste 1 -- -- 98
2017-09-18 08:00:00 13.3 0 Calma 2 Sur 0.8 -- -- 98
2017-09-18 07:00:00 13.3 0 Calma 2 Sur 0.8 -- -- 97
2017-09-18 06:00:00 13.4 0 Calma 5 Este 1.2 -- -- 97
2017-09-18 05:00:00 13.5 0 Calma 0 Calma 2.4 -- -- 97
2017-09-18 04:00:00 13.6 0 Calma 0 Calma 1 -- -- 97
2017-09-18 03:00:00 13.6 0 Calma 0 Calma 0.2 -- -- 97
2017-09-18 02:00:00 13.5 0 Calma 0 Calma 0 -- -- 96
2017-09-18 01:00:00 13.8 0 Calma 0 Calma 0 -- -- 96
2017-09-18 00:00:00 14.1 0 Calma 4 Este 0 -- -- 96
2017-09-17 23:00:00 14.1 0 Calma 0 Calma 0.2 -- -- 95
2017-09-17 22:00:00 14.4 0 Calma 5 Sur 0 -- -- 93
2017-09-17 21:00:00 15.3 0 Calma 19 Oeste 0.2 -- -- 91
2017-09-17 20:00:00 16.2 0 Calma 11 Oeste 0 -- -- 85
2017-09-17 19:00:00 17.7 4 Noroeste 19 Oeste 0 -- -- 75
2017-09-17 18:00:00 18.6 7 Noroeste 21 Oeste 0 -- -- 69
2017-09-17 17:00:00 17.8 5 Noroeste 23 Norte 0 -- -- 73
2017-09-17 16:00:00 18.6 12 Noroeste 23 Noroeste 0 -- -- 71
2017-09-17 15:00:00 19 5 Noroeste 12 Noroeste 0 -- -- 65
2017-09-17 14:00:00 17.8 8 Oeste 27 Oeste 0 -- -- 71
2017-09-17 13:00:00 18 12 Oeste 28 Oeste 0 -- -- 61
2017-09-17 12:00:00 17.5 6 Oeste 15 Sudoeste 0 -- -- 67
2017-09-17 11:00:00 14.1 0 Calma 4 Oeste 0 -- -- 88
2017-09-17 10:00:00 11.6 2 Oeste 12 Nordeste 0 -- -- 97
2017-09-17 09:00:00 10.2 0 Calma 4 Sudeste 0 -- -- 99
2017-09-17 08:00:00 9.6 0 Calma 4 Este 0 -- -- 99
2017-09-17 07:00:00 9.2 0 Calma 4 Sudeste 0 -- -- 99
2017-09-17 06:00:00 8.7 0 Calma 3 Sudeste 0 -- -- 99
2017-09-17 05:00:00 8.4 0 Calma 4 Sur 0 -- -- 98
2017-09-17 04:00:00 8.8 0 Calma 0 Calma 0 -- -- 99
2017-09-17 03:00:00 8.2 0 Calma 4 Sudeste 0 -- -- 97
2017-09-17 02:00:00 8.7 0 Calma 4 Norte 0 -- -- 97
2017-09-17 01:00:00 9 2 Sudeste 5 Sur 0 -- -- 97
2017-09-17 00:00:00 9.2 0 Calma 3 Noroeste 0 -- -- 97
2017-09-16 23:00:00 8.8 0 Calma 4 Sudeste 0 -- -- 96
2017-09-16 22:00:00 9.2 0 Calma 4 Este 0 -- -- 94
2017-09-16 21:00:00 10.2 0 Calma 5 Este 0 -- -- 92
2017-09-16 20:00:00 12.9 0 Calma 10 Oeste 0 -- -- 84
2017-09-16 19:00:00 15 4 Sudoeste 17 Noroeste 0 -- -- 83
2017-09-16 18:00:00 15.7 9 Noroeste 22 Sudoeste 0 -- -- 82
2017-09-16 17:00:00 15.9 5 Oeste 12 Sudoeste 0 -- -- 84
2017-09-16 16:00:00 14.3 4 Este 10 Nordeste 0 -- -- 91
2017-09-16 15:00:00 12.7 6 Sudoeste 10 Oeste 1.6 -- -- 97
2017-09-16 14:00:00 12.3 2 Oeste 6 Sur 2.8 -- -- 97
2017-09-16 13:00:00 12.3 3 Oeste 28 Noroeste 1.4 -- -- 93
2017-09-16 12:00:00 15.8 5 Noroeste 13 Oeste 0 -- -- 84
2017-09-16 11:00:00 14.3 3 Norte 6 Norte 0 -- -- 90
2017-09-16 10:00:00 12.7 0 Calma 3 Noroeste 0 -- -- 99
2017-09-16 09:00:00 10.6 0 Calma 10 Sudoeste 0 -- -- 99
2017-09-16 08:00:00 10.6 0 Calma 6 Norte 0.4 -- -- 99
2017-09-16 07:00:00 10.7 0 Calma 6 Nordeste 1.2 -- -- 99
2017-09-16 06:00:00 10.7 3 Este 6 Noroeste 4.8 -- -- 99
2017-09-16 05:00:00 10.7 3 Oeste 6 Oeste 1.6 -- -- 99
2017-09-16 04:00:00 10.5 2 Este 9 Este 0 -- -- 99
2017-09-16 03:00:00 10.9 5 Nordeste 8 Sudoeste 0.6 -- -- 99
2017-09-16 02:00:00 10.8 0 Calma 7 Nordeste 0.8 -- -- 98
2017-09-16 01:00:00 11 0 Calma 4 Este 2 -- -- 99
2017-09-16 00:00:00 10.7 0 Calma 5 Sur 2 -- -- 98
2017-09-15 23:00:00 10.7 3 Sur 5 Sur 0 -- -- 96
2017-09-15 22:00:00 12.5 2 Noroeste 13 Este 1.6 -- -- 97
2017-09-15 21:00:00 12.7 3 Norte 8 Nordeste 0.4 -- -- 97
2017-09-15 20:00:00 12.8 0 Calma 8 Noroeste 1.2 -- -- 94
2017-09-15 19:00:00 14.4 4 Sudoeste 19 Oeste 0.2 -- -- 90
2017-09-15 18:00:00 15.9 3 Oeste 11 Sudoeste 0 -- -- 90
2017-09-15 17:00:00 15.3 3 Oeste 10 Nordeste 1.6 -- -- 92
2017-09-15 16:00:00 13.6 6 Norte 34 Norte 12.2 -- -- 92
2017-09-15 15:00:00 15.8 3 Noroeste 25 Oeste 0.6 -- -- 83
2017-09-15 14:00:00 17.9 11 Oeste 27 Oeste 0.2 -- -- 74
2017-09-15 13:00:00 15 3 Noroeste 27 Noroeste 2 -- -- 92
2017-09-15 12:00:00 14.4 0 Calma 4 Norte 0 -- -- 96
2017-09-15 11:00:00 12.5 0 Calma 4 Nordeste 2.4 -- -- 98
2017-09-15 10:00:00 11.9 0 Calma 5 Este 1.4 -- -- 98
2017-09-15 09:00:00 11.3 3 Nordeste 6 Sudeste 4 -- -- 98
2017-09-15 08:00:00 11 2 Nordeste 4 Norte 0.2 -- -- 98
2017-09-15 07:00:00 10.8 0 Calma 4 Sudeste 0 -- -- 97
2017-09-15 06:00:00 11.1 0 Calma 4 Sudeste 0 -- -- 96
2017-09-15 05:00:00 11.5 0 Calma 3 Sur 0 -- -- 97
2017-09-15 04:00:00 11.5 0 Calma 6 Sudeste 0 -- -- 96
2017-09-15 03:00:00 11.6 0 Calma 4 Sudeste 0 -- -- 96
2017-09-15 02:00:00 11.5 0 Calma 6 Sudoeste 0 -- -- 97
2017-09-15 01:00:00 10.6 0 Calma 4 Sudeste 0 -- -- 96
2017-09-15 00:00:00 11.3 0 Calma 4 Sudeste 0 -- -- 92
2017-09-14 23:00:00 12.8 0 Calma 7 Este 0 -- -- 92
2017-09-14 22:00:00 12.7 3 Sudeste 6 Sudeste 0 -- -- 93
2017-09-14 21:00:00 13.1 2 Este 4 Sudeste 0 -- -- 88
2017-09-14 20:00:00 15.5 0 Calma 10 Noroeste 0 -- -- 78
2017-09-14 19:00:00 18 4 Norte 14 Oeste 0 -- -- 58
2017-09-14 18:00:00 19.3 5 Noroeste 26 Oeste 0 -- -- 58
2017-09-14 17:00:00 20.1 8 Noroeste 28 Nordeste 0 -- -- 58
2017-09-14 16:00:00 19.9 13 Oeste 28 Oeste 0 -- -- 63
2017-09-14 15:00:00 18.3 6 Oeste 22 Oeste 0 -- -- 78
2017-09-14 14:00:00 18.1 5 Oeste 13 Sudoeste 0 -- -- 80
2017-09-14 13:00:00 15.5 2 Nordeste 6 Sudeste 0 -- -- 94
2017-09-14 12:00:00 14.2 5 Sur 14 Sur 1 -- -- 94
2017-09-14 11:00:00 14 2 Sudoeste 35 Sudoeste 0.6 -- -- 95
2017-09-14 10:00:00 14.1 12 Oeste 30 Oeste 1.6 -- -- 94
2017-09-14 09:00:00 15.3 7 Norte 30 Norte 3.4 -- -- 93
2017-09-14 08:00:00 18 15 Noroeste 31 Norte 1.8 -- -- 90
2017-09-14 07:00:00 17.4 4 Sur 11 Sur 0 -- -- 95
2017-09-14 06:00:00 17.3 0 Calma 3 Noroeste 0 -- -- 96
2017-09-14 05:00:00 17.3 0 Calma 4 Sudeste 0 -- -- 95
2017-09-14 04:00:00 17.1 0 Calma 4 Sur 0 -- -- 96
2017-09-14 03:00:00 16.8 0 Calma 4 Sudeste 0 -- -- 95
2017-09-14 02:00:00 17.2 0 Calma 4 Sur 0 -- -- 93
2017-09-14 01:00:00 17.7 0 Calma 4 Sur 0 -- -- 94
2017-09-14 00:00:00 17.9 0 Calma 6 Sur 0 -- -- 93
2017-09-13 23:00:00 18.7 0 Calma 4 Este 0 -- -- 90
2017-09-13 22:00:00 19.3 0 Calma 4 Sudeste 0 -- -- 88
2017-09-13 21:00:00 20 3 Sudeste 5 Sur 0 -- -- 85
2017-09-13 20:00:00 21 3 Norte 15 Norte 0 -- -- 79
2017-09-13 19:00:00 21.7 6 Norte 17 Norte 0 -- -- 73
2017-09-13 18:00:00 22.5 7 Norte 18 Nordeste 0 -- -- 70
2017-09-13 17:00:00 23.6 9 Norte 20 Nordeste 0 -- -- 67
2017-09-13 16:00:00 24.2 10 Norte 23 Norte 0 -- -- 65
2017-09-13 15:00:00 24.7 10 Norte 22 Norte 0 -- -- 63
2017-09-13 14:00:00 25.8 6 Norte 14 Norte 0 -- -- 61
2017-09-13 13:00:00 25.1 3 Sur 7 Nordeste 0 -- -- 61
2017-09-13 12:00:00 23.7 2 Sur 4 Nordeste 0 -- -- 67
2017-09-13 11:00:00 21 2 Sudoeste 4 Oeste 0 -- -- 78
2017-09-13 10:00:00 18.5 0 Calma 3 Sudeste 0 -- -- 85
2017-09-13 09:00:00 15.8 0 Calma 2 Nordeste 0 -- -- 96
2017-09-13 08:00:00 15.2 0 Calma 2 Noroeste 0 -- -- 97
2017-09-13 07:00:00 15 0 Calma 2 Este 0 -- -- 97
2017-09-13 06:00:00 14.8 0 Calma 4 Nordeste 0 -- -- 97
2017-09-13 05:00:00 14.6 0 Calma 3 Sudeste 0 -- -- 97
2017-09-13 04:00:00 14.1 0 Calma 3 Nordeste 0 -- -- 98
2017-09-13 03:00:00 13.7 2 Sudeste 4 Este 0 -- -- 96
2017-09-13 02:00:00 14.1 0 Calma 2 Sudeste 0 -- -- 97
2017-09-13 01:00:00 13.8 0 Calma 2 Sur 0 -- -- 97
2017-09-13 00:00:00 13.8 0 Calma 3 Sudeste 0 -- -- 95
2017-09-12 23:00:00 14.3 0 Calma 5 Sudeste 0 -- -- 94
2017-09-12 22:00:00 14.9 0 Calma 5 Este 0 -- -- 93
2017-09-12 21:00:00 16.4 2 Sudeste 5 Sur 0 -- -- 88
2017-09-12 20:00:00 18.4 0 Calma 9 Noroeste 0 -- -- 83
2017-09-12 19:00:00 20.3 3 Norte 10 Noroeste 0 -- -- 71
2017-09-12 18:00:00 21 6 Noroeste 18 Noroeste 0 -- -- 64
2017-09-12 17:00:00 22.2 9 Noroeste 22 Oeste 0 -- -- 58
2017-09-12 16:00:00 22 5 Oeste 19 Oeste 0 -- -- 62
2017-09-12 15:00:00 21.3 8 Oeste 20 Oeste 0 -- -- 66
2017-09-12 14:00:00 21 0 Calma 8 Oeste 0 -- -- 67
2017-09-12 13:00:00 19.6 3 Norte 10 Nordeste 0 -- -- 73
2017-09-12 12:00:00 18.6 4 Sur 8 Sudoeste 0 -- -- 78
2017-09-12 11:00:00 15.7 2 Noroeste 5 Noroeste 0.4 -- -- 93
2017-09-12 10:00:00 15.2 0 Calma 2 Oeste 0 -- -- 97
2017-09-12 09:00:00 14.3 0 Calma 4 Norte 0 -- -- 98
2017-09-12 08:00:00 14 0 Calma 3 Noroeste 0 -- -- 98
2017-09-12 07:00:00 14.2 0 Calma 3 Este 1.6 -- -- 98
2017-09-12 06:00:00 14.1 0 Calma 3 Norte 0 -- -- 98
2017-09-12 05:00:00 14.2 0 Calma 5 Este 1 -- -- 98
2017-09-12 04:00:00 14.2 0 Calma 5 Nordeste 0.2 -- -- 97
2017-09-12 03:00:00 14.2 0 Calma 6 Noroeste 0.6 -- -- 96
2017-09-12 02:00:00 14.4 0 Calma 11 Norte 0.4 -- -- 94
2017-09-12 01:00:00 14.6 2 Nordeste 11 Noroeste 1 -- -- 95
2017-09-12 00:00:00 14.9 12 Noroeste 26 Oeste 4 -- -- 93
2017-09-11 23:00:00 15.9 0 Calma 5 Sudoeste 0.2 -- -- 95
2017-09-11 22:00:00 16.1 0 Calma 4 Nordeste 0 -- -- 93
2017-09-11 21:00:00 16.6 3 Sudeste 8 Sudeste 0 -- -- 91
2017-09-11 20:00:00 17.4 0 Calma 9 Oeste 0 -- -- 88
2017-09-11 19:00:00 18 0 Calma 9 Sudoeste 0 -- -- 87
2017-09-11 18:00:00 18.1 2 Oeste 18 Oeste 0.2 -- -- 83
2017-09-11 17:00:00 18.7 9 Noroeste 25 Noroeste 0.2 -- -- 83
2017-09-11 16:00:00 19.4 9 Sudoeste 23 Sudoeste 0 -- -- 78
2017-09-11 15:00:00 18.2 4 Oeste 27 Oeste 1.2 -- -- 88
2017-09-11 14:00:00 19.2 10 Sudoeste 23 Sudoeste 0.2 -- -- 82
2017-09-11 13:00:00 17.6 4 Noroeste 15 Oeste 0.6 -- -- 87
2017-09-11 12:00:00 17.3 5 Oeste 24 Oeste 3.8 -- -- 94
2017-09-11 11:00:00 16.8 4 Sur 31 Oeste 1 -- -- 94
2017-09-11 10:00:00 16.9 3 Sur 8 Sur 1.8 -- -- 97
2017-09-11 09:00:00 16.6 3 Oeste 6 Sudoeste 1.2 -- -- 97
2017-09-11 08:00:00 16.6 0 Calma 19 Sudoeste 0.8 -- -- 95
2017-09-11 07:00:00 17.1 2 Sudoeste 22 Oeste 3.2 -- -- 96
2017-09-11 06:00:00 17.5 10 Oeste 27 Oeste 3.2 -- -- 95
2017-09-11 05:00:00 18.1 5 Oeste 24 Oeste 1.4 -- -- 95
2017-09-11 04:00:00 18.4 8 Oeste 23 Sudoeste 0 -- -- 92
2017-09-11 03:00:00 16.8 4 Norte 19 Sudoeste 0.2 -- -- 98
2017-09-11 02:00:00 15.4 2 Este 9 Noroeste 0 -- -- 97
2017-09-11 01:00:00 15.2 3 Noroeste 6 Noroeste 0 -- -- 96
2017-09-11 00:00:00 15.3 0 Calma 4 Norte 0 -- -- 96
2017-09-10 23:00:00 15.4 0 Calma 4 Norte 0 -- -- 96
2017-09-10 22:00:00 15.6 0 Calma 5 Noroeste 0 -- -- 96
2017-09-10 21:00:00 15.7 0 Calma 4 Sudeste 0 -- -- 95
2017-09-10 20:00:00 16.7 0 Calma 11 Sudoeste 0 -- -- 93
2017-09-10 19:00:00 17.5 0 Calma 11 Sudoeste 0 -- -- 90
2017-09-10 18:00:00 17.3 5 Sudoeste 23 Noroeste 0 -- -- 87
2017-09-10 17:00:00 18 8 Oeste 16 Noroeste 0 -- -- 84
2017-09-10 16:00:00 16.7 3 Noroeste 27 Noroeste 1.2 -- -- 94
2017-09-10 15:00:00 16.8 6 Sudoeste 15 Oeste 0.8 -- -- 91
2017-09-10 14:00:00 16.8 8 Noroeste 36 Oeste 1 -- -- 89
2017-09-10 13:00:00 17.5 8 Oeste 19 Oeste 1.4 -- -- 86
2017-09-10 12:00:00 16.4 8 Noroeste 24 Noroeste 1.4 -- -- 92
2017-09-10 11:00:00 15.1 4 Noroeste 15 Noroeste 2.8 -- -- 98
2017-09-10 10:00:00 14.2 6 Oeste 17 Oeste 6.6 -- -- 97
2017-09-10 09:00:00 13.9 2 Nordeste 14 Oeste 0 -- -- 98
2017-09-10 08:00:00 13.7 2 Sur 28 Noroeste 5.4 -- -- 96
2017-09-10 07:00:00 13.4 7 Nordeste 33 Oeste 6.6 -- -- 98
2017-09-10 06:00:00 13.2 16 Oeste 45 Oeste 5 -- -- 96
2017-09-10 05:00:00 12.2 0 Calma 14 Sudoeste 3 -- -- 98
2017-09-10 04:00:00 12.2 6 Sudeste 23 Norte 25.2 -- -- 97
2017-09-10 03:00:00 13.6 3 Oeste 25 Norte 1.2 -- -- 95
2017-09-10 02:00:00 13.2 2 Nordeste 10 Sudoeste 1.8 -- -- 99
2017-09-10 01:00:00 13.1 2 Sur 12 Noroeste 8.8 -- -- 99
2017-09-10 00:00:00 12.7 0 Calma 7 Este 0.4 -- -- 98
2017-09-09 23:00:00 13 0 Calma 13 Sur 3 -- -- 98
2017-09-09 22:00:00 12.9 0 Calma 9 Sudeste 1.4 -- -- 97
2017-09-09 21:00:00 13.2 5 Sur 29 Oeste 4 -- -- 94
2017-09-09 20:00:00 14.6 0 Calma 11 Oeste 1.4 -- -- 96
2017-09-09 19:00:00 14.6 3 Oeste 21 Sudoeste 1.6 -- -- 94
2017-09-09 18:00:00 14.8 8 Oeste 18 Oeste 2.8 -- -- 92
2017-09-09 17:00:00 15.4 6 Oeste 32 Noroeste 1 -- -- 93
2017-09-09 16:00:00 15.2 3 Nordeste 27 Oeste 4.6 -- -- 91
2017-09-09 15:00:00 16.2 5 Sudoeste 32 Oeste 5 -- -- 92
2017-09-09 14:00:00 17.4 13 Noroeste 33 Noroeste 2.4 -- -- 83
2017-09-09 13:00:00 17.1 4 Este 18 Oeste 0.6 -- -- 89
2017-09-09 12:00:00 16.6 7 Sudoeste 12 Sudoeste 0 -- -- 92
2017-09-09 11:00:00 16.3 3 Nordeste 12 Noroeste 0.4 -- -- 96
2017-09-09 10:00:00 15.6 5 Norte 18 Norte 1 -- -- 97
2017-09-09 09:00:00 15.4 0 Calma 7 Este 0.2 -- -- 98
2017-09-09 08:00:00 15.3 3 Sudeste 26 Oeste 4.4 -- -- 96
2017-09-09 07:00:00 15.8 4 Oeste 39 Noroeste 4.4 -- -- 96
2017-09-09 06:00:00 16.7 4 Sudoeste 14 Oeste 6.8 -- -- 96
2017-09-09 05:00:00 16.9 3 Sudoeste 23 Oeste 2 -- -- 94
2017-09-09 04:00:00 16.3 6 Oeste 19 Oeste 0 -- -- 93
2017-09-09 03:00:00 15.4 0 Calma 5 Oeste 0 -- -- 93
2017-09-09 02:00:00 15.1 3 Norte 8 Noroeste 0 -- -- 93
2017-09-09 01:00:00 14.9 0 Calma 6 Norte 0 -- -- 94
2017-09-09 00:00:00 14.2 0 Calma 4 Este 0 -- -- 95
2017-09-08 23:00:00 14 0 Calma 8 Noroeste 0 -- -- 93
2017-09-08 22:00:00 14.7 0 Calma 5 Sudeste 0 -- -- 91
2017-09-08 21:00:00 16.3 3 Sudeste 7 Noroeste 0 -- -- 86
2017-09-08 20:00:00 19.1 3 Noroeste 12 Noroeste 0 -- -- 75
2017-09-08 19:00:00 21 5 Noroeste 10 Noroeste 0 -- -- 66
2017-09-08 18:00:00 22 2 Sudeste 14 Noroeste 0 -- -- 60
2017-09-08 17:00:00 21.9 9 Noroeste 23 Norte 0 -- -- 60
2017-09-08 16:00:00 22.4 10 Norte 23 Norte 0 -- -- 60
2017-09-08 15:00:00 23.9 5 Noroeste 10 Noroeste 0 -- -- 60
2017-09-08 14:00:00 22.4 3 Noroeste 8 Este 0 -- -- 60
2017-09-08 13:00:00 21.4 4 Nordeste 7 Nordeste 0 -- -- 56
2017-09-08 12:00:00 19.5 0 Calma 5 Sur 0 -- -- 75
2017-09-08 11:00:00 16.5 0 Calma 4 Sudoeste 0 -- -- 81
2017-09-08 10:00:00 14.2 0 Calma 2 Noroeste 0 -- -- 92
2017-09-08 09:00:00 13.2 0 Calma 2 Sur 0 -- -- 95
2017-09-08 08:00:00 12.7 0 Calma 2 Nordeste 0 -- -- 97
2017-09-08 07:00:00 12.5 0 Calma 4 Sudeste 0 -- -- 97
2017-09-08 06:00:00 12.1 0 Calma 3 Sudeste 0 -- -- 97
2017-09-08 05:00:00 11.9 2 Sudeste 4 Sudeste 0 -- -- 95
2017-09-08 04:00:00 12.8 0 Calma 2 Sur 0 -- -- 95
2017-09-08 03:00:00 12.9 0 Calma 2 Sudeste 0 -- -- 97
2017-09-08 02:00:00 12.6 0 Calma 4 Este 0 -- -- 96
2017-09-08 01:00:00 12.8 2 Sudeste 4 Sudeste 0 -- -- 94
2017-09-08 00:00:00 13.6 0 Calma 3 Sudeste 0 -- -- 93
2017-09-07 23:00:00 14.6 0 Calma 5 Sudeste 0 -- -- 91
2017-09-07 22:00:00 15.8 0 Calma 3 Este 0 -- -- 88
2017-09-07 21:00:00 17.1 0 Calma 3 Norte 0 -- -- 84
2017-09-07 20:00:00 18.8 2 Norte 6 Este 0 -- -- 78
2017-09-07 19:00:00 19.8 3 Noroeste 9 Noroeste 0 -- -- 68
2017-09-07 18:00:00 20.6 4 Norte 13 Noroeste 0 -- -- 60
2017-09-07 17:00:00 21.1 4 Nordeste 13 Nordeste 0 -- -- 56
2017-09-07 16:00:00 21.4 6 Norte 25 Noroeste 0 -- -- 58
2017-09-07 15:00:00 21.6 4 Noroeste 17 Norte 0 -- -- 56
2017-09-07 14:00:00 20.8 6 Norte 17 Noroeste 0 -- -- 61
2017-09-07 13:00:00 20.9 5 Este 12 Este 0 -- -- 63
2017-09-07 12:00:00 19.8 4 Este 7 Sudeste 0 -- -- 66
2017-09-07 11:00:00 18.1 0 Calma 4 Sur 0 -- -- 83
2017-09-07 10:00:00 16.5 0 Calma 3 Sudoeste 0 -- -- 89
2017-09-07 09:00:00 15.5 0 Calma 3 Este 0 -- -- 95
2017-09-07 08:00:00 15.1 0 Calma 4 Sudeste 0 -- -- 96
2017-09-07 07:00:00 15.2 0 Calma 3 Sudeste 0 -- -- 95
2017-09-07 06:00:00 15.5 0 Calma 2 Nordeste 0 -- -- 95
2017-09-07 05:00:00 15.6 0 Calma 3 Norte 0 -- -- 94
2017-09-07 04:00:00 15.7 0 Calma 5 Norte 0 -- -- 93
2017-09-07 03:00:00 16 2 Nordeste 4 Nordeste 0 -- -- 94
2017-09-07 02:00:00 16.1 0 Calma 2 Sudeste 0 -- -- 93
2017-09-07 01:00:00 16.3 0 Calma 2 Sudeste 0 -- -- 93
2017-09-07 00:00:00 16.5 0 Calma 3 Este 0 -- -- 92
2017-09-06 23:00:00 16.6 0 Calma 4 Noroeste 0 -- -- 90
2017-09-06 22:00:00 17.6 0 Calma 4 Noroeste 0 -- -- 88
2017-09-06 21:00:00 18.4 2 Noroeste 5 Nordeste 0 -- -- 83
2017-09-06 20:00:00 19 0 Calma 9 Norte 0 -- -- 82
2017-09-06 19:00:00 20.3 4 Norte 13 Noroeste 0 -- -- 68
2017-09-06 18:00:00 20.4 4 Norte 12 Noroeste 0 -- -- 69
2017-09-06 17:00:00 21 5 Norte 17 Oeste 0 -- -- 66
2017-09-06 16:00:00 21.3 7 Norte 17 Norte 0 -- -- 66
2017-09-06 15:00:00 21.7 7 Noroeste 17 Nordeste 0 -- -- 71
2017-09-06 14:00:00 21 3 Norte 12 Norte 0 -- -- 74
2017-09-06 13:00:00 20 3 Oeste 8 Noroeste 0.2 -- -- 86
2017-09-06 12:00:00 19.5 3 Nordeste 8 Este 0 -- -- 83
2017-09-06 11:00:00 18.7 0 Calma 6 Noroeste 0.2 -- -- 93
2017-09-06 10:00:00 18.1 4 Noroeste 18 Noroeste 0.6 -- -- 96
2017-09-06 09:00:00 17.8 6 Norte 19 Noroeste 0.8 -- -- 94
2017-09-06 08:00:00 17.6 0 Calma 0 Calma 1.6 -- -- 97
2017-09-06 07:00:00 17.6 0 Calma 0 Calma 0.2 -- -- 97
2017-09-06 06:00:00 17.4 0 Calma 0 Calma 0 -- -- 97
2017-09-06 05:00:00 17.3 0 Calma 4 Sudeste 0 -- -- 97
2017-09-06 04:00:00 17.1 0 Calma 3 Sudeste 0 -- -- 95
2017-09-06 03:00:00 17.7 0 Calma 4 Nordeste 0 -- -- 97
2017-09-06 02:00:00 17.2 0 Calma 3 Sudeste 0 -- -- 96
2017-09-06 01:00:00 17.5 0 Calma 2 Sur 0 -- -- 94
2017-09-06 00:00:00 18.1 0 Calma 6 Sudeste 0 -- -- 93
2017-09-05 23:00:00 18.9 0 Calma 5 Sudeste 0 -- -- 91
2017-09-05 22:00:00 19.9 0 Calma 4 Nordeste 0 -- -- 90
2017-09-05 21:00:00 20.8 0 Calma 4 Norte 0 -- -- 86
2017-09-05 20:00:00 22.2 2 Nordeste 8 Norte 0 -- -- 80
2017-09-05 19:00:00 22.7 4 Noroeste 9 Noroeste 0 -- -- 76
2017-09-05 18:00:00 22.9 2 Sur 10 Nordeste 0 -- -- 75
2017-09-05 17:00:00 22.6 4 Nordeste 15 Nordeste 0 -- -- 74
2017-09-05 16:00:00 22.9 4 Noroeste 13 Noroeste 0 -- -- 73
2017-09-05 15:00:00 23.3 6 Noroeste 17 Norte 0 -- -- 75
2017-09-05 14:00:00 24.3 6 Norte 21 Noroeste 0 -- -- 74
2017-09-05 13:00:00 24.6 6 Noroeste 14 Noroeste 0 -- -- 71
2017-09-05 12:00:00 23.2 2 Este 5 Sudoeste 0 -- -- 74
2017-09-05 11:00:00 19.2 3 Sur 6 Sur 0 -- -- 87
2017-09-05 10:00:00 16.4 2 Sudoeste 5 Nordeste 0 -- -- 95
2017-09-05 09:00:00 15.6 0 Calma 4 Sudoeste 0 -- -- 97
2017-09-05 08:00:00 15.4 2 Oeste 6 Oeste 0 -- -- 97
2017-09-05 07:00:00 15.4 3 Noroeste 5 Noroeste 0 -- -- 97
2017-09-05 06:00:00 15.6 2 Noroeste 5 Noroeste 0 -- -- 97
2017-09-05 05:00:00 15.6 0 Calma 5 Norte 0 -- -- 97
2017-09-05 04:00:00 15.8 2 Noroeste 5 Noroeste 0 -- -- 97
2017-09-05 03:00:00 16.2 0 Calma 3 Noroeste 0 -- -- 97
2017-09-05 02:00:00 16.3 0 Calma 3 Noroeste 0 -- -- 97
2017-09-05 01:00:00 16 0 Calma 2 Noroeste 0 -- -- 97
2017-09-05 00:00:00 15.7 0 Calma 4 Sudeste 0 -- -- 96
2017-09-04 23:00:00 16.3 0 Calma 4 Sudeste 0 -- -- 94
2017-09-04 22:00:00 17.3 2 Sudeste 4 Sudeste 0 -- -- 92
2017-09-04 21:00:00 19 0 Calma 5 Noroeste 0 -- -- 88
2017-09-04 20:00:00 21.8 3 Noroeste 10 Noroeste 0 -- -- 79
2017-09-04 19:00:00 23.1 5 Norte 17 Noroeste 0 -- -- 72
2017-09-04 18:00:00 24.9 4 Noroeste 15 Oeste 0 -- -- 67
2017-09-04 17:00:00 24.6 9 Noroeste 22 Noroeste 0 -- -- 69
2017-09-04 16:00:00 23.5 6 Noroeste 18 Oeste 0 -- -- 71
2017-09-04 15:00:00 23.3 4 Noroeste 15 Oeste 0 -- -- 72
2017-09-04 14:00:00 23.5 4 Noroeste 12 Noroeste 0 -- -- 72
2017-09-04 13:00:00 22.9 8 Oeste 18 Noroeste 0 -- -- 73
2017-09-04 12:00:00 22.9 5 Sudoeste 10 Oeste 0 -- -- 76
2017-09-04 11:00:00 20.6 0 Calma 0 Calma 0 -- -- 86
2017-09-04 10:00:00 18.4 0 Calma 0 Calma 0 -- -- 95
2017-09-04 09:00:00 17.6 0 Calma 0 Calma 0 -- -- 98
2017-09-04 08:00:00 16.9 0 Calma 0 Calma 0.2 -- -- 97
2017-09-04 07:00:00 17 0 Calma 5 Noroeste 0 -- -- 97
2017-09-04 06:00:00 17.2 0 Calma 5 Oeste 0.4 -- -- 97
2017-09-04 05:00:00 17.3 2 Nordeste 5 Este 4.4 -- -- 97
2017-09-04 04:00:00 17.2 0 Calma 4 Sur 0 -- -- 96
2017-09-04 03:00:00 17.4 0 Calma 6 Sudeste 0.4 -- -- 96
2017-09-04 02:00:00 17 0 Calma 5 Sur 0 -- -- 95
2017-09-04 01:00:00 18 2 Norte 6 Oeste 0 -- -- 95
2017-09-04 00:00:00 18 0 Calma 3 Sur 0 -- -- 94
2017-09-03 23:00:00 18.7 0 Calma 8 Este 0.2 -- -- 91
2017-09-03 22:00:00 19.5 0 Calma 2 Sudeste 0 -- -- 89
2017-09-03 21:00:00 20 2 Este 6 Sudeste 0 -- -- 86
2017-09-03 20:00:00 21.9 0 Calma 6 Sudeste 0 -- -- 79
2017-09-03 19:00:00 23.5 0 Calma 8 Sudeste 0 -- -- 68
2017-09-03 18:00:00 24.4 3 Norte 8 Noroeste 0 -- -- 64
2017-09-03 17:00:00 26.1 3 Nordeste 12 Noroeste 0 -- -- 43
2017-09-03 16:00:00 25.6 5 Sudoeste 12 Oeste 0 -- -- 49
2017-09-03 15:00:00 25.4 4 Sudoeste 6 Oeste 0 -- -- 54
2017-09-03 14:00:00 23.5 3 Norte 6 Nordeste 0 -- -- 56
2017-09-03 13:00:00 21.4 2 Oeste 5 Oeste 0 -- -- 70
2017-09-03 12:00:00 18.3 2 Norte 6 Sudoeste 0 -- -- 78
2017-09-03 11:00:00 15.4 2 Nordeste 5 Oeste 0 -- -- 87
2017-09-03 10:00:00 13.8 0 Calma 6 Este 0 -- -- 95
2017-09-03 09:00:00 13.1 2 Este 9 Sudoeste 0 -- -- 97
2017-09-03 08:00:00 12.8 5 Oeste 11 Oeste 0 -- -- 97
2017-09-03 07:00:00 12.8 0 Calma 6 Nordeste 0 -- -- 97
2017-09-03 06:00:00 12.8 0 Calma 5 Este 0 -- -- 98
2017-09-03 05:00:00 12.7 0 Calma 4 Sudeste 0 -- -- 98
2017-09-03 04:00:00 12.8 0 Calma 4 Noroeste 0 -- -- 98
2017-09-03 03:00:00 12.8 0 Calma 3 Norte 0 -- -- 98
2017-09-03 02:00:00 12.9 0 Calma 4 Este 0 -- -- 97
2017-09-03 01:00:00 12.4 0 Calma 4 Sudeste 0 -- -- 97
2017-09-03 00:00:00 12.4 0 Calma 5 Este 0 -- -- 95
2017-09-02 23:00:00 12.8 0 Calma 5 Sudeste 0 -- -- 94
2017-09-02 22:00:00 13.6 0 Calma 6 Sudeste 0 -- -- 91
2017-09-02 21:00:00 15.3 2 Sudeste 5 Este 0 -- -- 88
2017-09-02 20:00:00 18.3 2 Sudoeste 13 Noroeste 0 -- -- 77
2017-09-02 19:00:00 20.4 4 Norte 19 Nordeste 0 -- -- 68
2017-09-02 18:00:00 21.8 6 Nordeste 18 Oeste 0 -- -- 61
2017-09-02 17:00:00 22.1 8 Noroeste 21 Oeste 0 -- -- 61
2017-09-02 16:00:00 20.3 2 Oeste 16 Oeste 0 -- -- 67
2017-09-02 15:00:00 19.3 7 Noroeste 19 Oeste 0 -- -- 73
2017-09-02 14:00:00 19 7 Oeste 15 Noroeste 0 -- -- 84
2017-09-02 13:00:00 17 0 Calma 6 Sudeste 0 -- -- 88
2017-09-02 12:00:00 16.1 3 Nordeste 5 Nordeste 0.2 -- -- 95
2017-09-02 11:00:00 15.4 0 Calma 4 Este 0 -- -- 97
2017-09-02 10:00:00 14.5 0 Calma 3 Este 0 -- -- 97
2017-09-02 09:00:00 13.8 2 Este 4 Noroeste 0 -- -- 98
2017-09-02 08:00:00 13.7 0 Calma 4 Noroeste 0 -- -- 98
2017-09-02 07:00:00 13.7 0 Calma 5 Sudoeste 0 -- -- 98
2017-09-02 06:00:00 13.8 3 Sudoeste 4 Sudoeste 0 -- -- 98
2017-09-02 05:00:00 13.9 0 Calma 2 Sudeste 0 -- -- 98
2017-09-02 04:00:00 13.6 0 Calma 3 Sudeste 0 -- -- 97
2017-09-02 03:00:00 14 0 Calma 5 Oeste 0 -- -- 97
2017-09-02 02:00:00 14.2 4 Este 11 Nordeste 2.2 -- -- 97
2017-09-02 01:00:00 13.9 2 Este 4 Nordeste 0 -- -- 96
2017-09-02 00:00:00 15 0 Calma 6 Este 0 -- -- 94
2017-09-01 23:00:00 15.2 0 Calma 3 Sudeste 0 -- -- 95
2017-09-01 22:00:00 15.5 0 Calma 4 Sudoeste 0 -- -- 93
2017-09-01 21:00:00 16.5 0 Calma 5 Nordeste 0 -- -- 91
2017-09-01 20:00:00 17 0 Calma 9 Noroeste 0 -- -- 87
2017-09-01 19:00:00 17.8 5 Oeste 24 Noroeste 0.2 -- -- 80
2017-09-01 18:00:00 19.4 12 Noroeste 28 Oeste 0 -- -- 75
2017-09-01 17:00:00 19 9 Oeste 21 Oeste 0.6 -- -- 81
2017-09-01 16:00:00 19.3 8 Noroeste 21 Noroeste 0.2 -- -- 77
2017-09-01 15:00:00 18.4 4 Nordeste 23 Oeste 2 -- -- 81
2017-09-01 14:00:00 19.5 5 Sudoeste 28 Noroeste 0 -- -- 70
2017-09-01 13:00:00 20.3 8 Oeste 24 Oeste 0 -- -- 67
2017-09-01 12:00:00 18.7 3 Sur 7 Sur 0 -- -- 82
2017-09-01 11:00:00 15.8 2 Este 7 Nordeste 0 -- -- 90
2017-09-01 10:00:00 14.6 0 Calma 0 Calma 0 -- -- 93
2017-09-01 09:00:00 13.8 0 Calma 0 Calma 0 -- -- 95
2017-09-01 08:00:00 13.4 0 Calma 0 Calma 0 -- -- 96
2017-09-01 07:00:00 13.3 0 Calma 0 Calma 0 -- -- 96
2017-09-01 06:00:00 13.2 0 Calma 0 Calma 0 -- -- 97
2017-09-01 05:00:00 13.2 0 Calma 0 Calma 0 -- -- 97
2017-09-01 04:00:00 13.2 0 Calma 0 Calma 0 -- -- 97
2017-09-01 03:00:00 13.3 0 Calma 0 Calma 0 -- -- 97
2017-09-01 02:00:00 13.3 0 Calma 0 Calma 0 -- -- 97
2017-09-01 01:00:00 12.7 0 Calma 0 Calma 0 -- -- 96
2017-09-01 00:00:00 13.1 0 Calma 0 Calma 0 -- -- 95
2017-08-31 23:00:00 13.8 0 Calma 0 Calma 0 -- -- 94
2017-08-31 22:00:00 14.5 0 Calma 4 Sudeste 0 -- -- 91
2017-08-31 21:00:00 16.6 0 Calma 4 Noroeste 0 -- -- 85
2017-08-31 20:00:00 19 3 Norte 14 Norte 0 -- -- 71
2017-08-31 19:00:00 19.7 4 Norte 17 Nordeste 0 -- -- 68
2017-08-31 18:00:00 20.2 5 Norte 17 Noroeste 0 -- -- 67
2017-08-31 17:00:00 21.4 8 Noroeste 17 Noroeste 0 -- -- 65
2017-08-31 16:00:00 21.9 8 Noroeste 15 Noroeste 0 -- -- 67
2017-08-31 15:00:00 20.5 6 Norte 16 Noroeste 0 -- -- 63
2017-08-31 14:00:00 19.4 5 Noroeste 18 Noroeste 0 -- -- 77
2017-08-31 13:00:00 20.4 4 Este 13 Sudeste 0 -- -- 78
2017-08-31 12:00:00 18.8 3 Oeste 8 Oeste 0 -- -- 84
2017-08-31 11:00:00 17.8 2 Sudeste 11 Sudeste 0 -- -- 88
2017-08-31 10:00:00 16.2 5 Este 13 Este 0.2 -- -- 97
2017-08-31 09:00:00 15.8 4 Este 9 Sudeste 0 -- -- 99
2017-08-31 08:00:00 15.4 0 Calma 3 Sudeste 0.4 -- -- 99
2017-08-31 07:00:00 15.3 0 Calma 3 Sudeste 0 -- -- 98
2017-08-31 06:00:00 15.4 0 Calma 5 Sudeste 0 -- -- 98
2017-08-31 05:00:00 15.7 0 Calma 3 Sudeste 0.6 -- -- 98
2017-08-31 04:00:00 16 3 Sudeste 8 Norte 2.2 -- -- 98
2017-08-31 03:00:00 16.1 0 Calma 4 Noroeste 0.6 -- -- 98
2017-08-31 02:00:00 16.2 0 Calma 10 Noroeste 1 -- -- 98
2017-08-31 01:00:00 16.3 4 Oeste 29 Oeste 1.6 -- -- 97
2017-08-31 00:00:00 17.2 4 Noroeste 17 Noroeste 8 -- -- 98
2017-08-30 23:00:00 17.5 5 Sudoeste 9 Sudoeste 1.8 -- -- 98
2017-08-30 22:00:00 17.6 0 Calma 5 Sur 1.6 -- -- 98
2017-08-30 21:00:00 17.7 3 Sur 9 Sudeste 7.2 -- -- 96
2017-08-30 20:00:00 18.2 2 Sur 15 Oeste 5.6 -- -- 95
2017-08-30 19:00:00 19.4 12 Noroeste 39 Noroeste 21.8 -- -- 94
2017-08-30 18:00:00 21.1 5 Nordeste 15 Sudeste 0.2 -- -- 91
2017-08-30 17:00:00 21.5 3 Nordeste 15 Nordeste 8 -- -- 87
2017-08-30 16:00:00 23.3 9 Norte 23 Noroeste 0.2 -- -- 78
2017-08-30 15:00:00 26.3 9 Norte 28 Noroeste 0 -- -- 68
2017-08-30 14:00:00 25.4 6 Noroeste 20 Norte 0 -- -- 74
2017-08-30 13:00:00 26.6 8 Norte 15 Norte 0 -- -- 66
2017-08-30 12:00:00 25.1 5 Norte 9 Noroeste 0 -- -- 71
2017-08-30 11:00:00 22.5 3 Sudoeste 7 Nordeste 0 -- -- 83
2017-08-30 10:00:00 20.3 2 Nordeste 5 Este 0 -- -- 93
2017-08-30 09:00:00 18.9 3 Norte 7 Norte 0 -- -- 97
2017-08-30 08:00:00 18.8 0 Calma 5 Sudeste 0 -- -- 97
2017-08-30 07:00:00 19 0 Calma 4 Norte 0 -- -- 96
2017-08-30 06:00:00 19 0 Calma 4 Noroeste 0 -- -- 96
2017-08-30 05:00:00 19.1 0 Calma 5 Sudeste 0 -- -- 96
2017-08-30 04:00:00 19.4 2 Oeste 6 Sudoeste 0 -- -- 96
2017-08-30 03:00:00 19.7 0 Calma 3 Sur 0 -- -- 96
2017-08-30 02:00:00 19.4 0 Calma 3 Noroeste 0 -- -- 96
2017-08-30 01:00:00 19.5 0 Calma 3 Sur 0 -- -- 96
2017-08-30 00:00:00 19.3 0 Calma 4 Nordeste 0 -- -- 94
2017-08-29 23:00:00 20.1 3 Sudeste 6 Sur 0 -- -- 94
2017-08-29 22:00:00 20.9 0 Calma 5 Noroeste 0 -- -- 93
2017-08-29 21:00:00 21.5 2 Nordeste 6 Noroeste 0 -- -- 91
2017-08-29 20:00:00 22.1 0 Calma 8 Noroeste 0 -- -- 89
2017-08-29 19:00:00 23.1 3 Oeste 11 Noroeste 0 -- -- 85
2017-08-29 18:00:00 24.2 4 Noroeste 19 Noroeste 0.6 -- -- 84
2017-08-29 17:00:00 26.7 8 Noroeste 26 Noroeste 0 -- -- 72
2017-08-29 16:00:00 26.1 7 Noroeste 24 Noroeste 0 -- -- 76
2017-08-29 15:00:00 26.6 9 Norte 18 Noroeste 0 -- -- 70
2017-08-29 14:00:00 25.4 3 Noroeste 8 Nordeste 0 -- -- 74
2017-08-29 13:00:00 23.2 0 Calma 8 Noroeste 0 -- -- 83
2017-08-29 12:00:00 20.1 5 Este 17 Sudeste 1.6 -- -- 94
2017-08-29 11:00:00 20.8 0 Calma 6 Noroeste 0 -- -- 91
2017-08-29 10:00:00 19.7 0 Calma 4 Nordeste 0 -- -- 95
2017-08-29 09:00:00 18.4 3 Sudoeste 5 Sudoeste 0.2 -- -- 98
2017-08-29 08:00:00 17.9 0 Calma 5 Norte 0 -- -- 98
2017-08-29 07:00:00 17.9 3 Sudeste 6 Sudeste 0 -- -- 98
2017-08-29 06:00:00 17.8 0 Calma 5 Este 0 -- -- 97
2017-08-29 05:00:00 18.1 0 Calma 6 Oeste 0 -- -- 97
2017-08-29 04:00:00 18.8 0 Calma 5 Sur 2.8 -- -- 97
2017-08-29 03:00:00 19.3 2 Nordeste 15 Sur 4.4 -- -- 95
2017-08-29 02:00:00 19.7 0 Calma 14 Noroeste 2.2 -- -- 96
2017-08-29 01:00:00 19.5 0 Calma 7 Nordeste 0 -- -- 96
2017-08-29 00:00:00 19.5 0 Calma 6 Noroeste 0.2 -- -- 96
2017-08-28 23:00:00 19.4 0 Calma 5 Noroeste 0 -- -- 95
2017-08-28 22:00:00 19.8 5 Sudoeste 9 Sudoeste 0.2 -- -- 95
2017-08-28 21:00:00 20.1 2 Noroeste 9 Nordeste 0.4 -- -- 94
2017-08-28 20:00:00 20.7 6 Nordeste 37 Sudoeste 3.2 -- -- 91
2017-08-28 19:00:00 25.9 6 Sur 10 Sur 0 -- -- 70
2017-08-28 18:00:00 28.7 4 Noroeste 15 Norte 0 -- -- 63
2017-08-28 17:00:00 31.3 4 Norte 14 Sudeste 0 -- -- 53
2017-08-28 16:00:00 31.9 5 Este 17 Este 0 -- -- 52
2017-08-28 15:00:00 30.6 9 Nordeste 21 Nordeste 0 -- -- 55
2017-08-28 14:00:00 30 4 Sudeste 9 Sudeste 0 -- -- 57
2017-08-28 13:00:00 27.8 3 Oeste 13 Noroeste 0 -- -- 71
2017-08-28 12:00:00 25.2 2 Nordeste 9 Oeste 0 -- -- 72
2017-08-28 11:00:00 21.5 0 Calma 3 Oeste 0 -- -- 88
2017-08-28 10:00:00 19.9 0 Calma 4 Oeste 0 -- -- 88
2017-08-28 09:00:00 17.7 0 Calma 5 Sudoeste 0 -- -- 97
2017-08-28 08:00:00 16.6 0 Calma 3 Sudoeste 0 -- -- 97
2017-08-28 07:00:00 16.2 0 Calma 2 Sur 0 -- -- 97
2017-08-28 06:00:00 16.4 0 Calma 6 Sur 0 -- -- 95
2017-08-28 05:00:00 16.7 2 Sudeste 6 Sur 0 -- -- 95
2017-08-28 04:00:00 17.4 0 Calma 8 Este 0 -- -- 93
2017-08-28 03:00:00 18.1 2 Oeste 4 Oeste 0 -- -- 92
2017-08-28 02:00:00 19.2 0 Calma 14 Sur 0 -- -- 87
2017-08-28 01:00:00 20.6 4 Norte 11 Sur 0 -- -- 81
2017-08-28 00:00:00 19.1 0 Calma 6 Sur 0 -- -- 91
2017-08-27 23:00:00 20.3 2 Norte 15 Sudeste 0 -- -- 87
2017-08-27 22:00:00 23 5 Este 26 Este 0 -- -- 76
2017-08-27 21:00:00 21.7 5 Sudeste 10 Sudeste 0 -- -- 90
2017-08-27 20:00:00 22.9 2 Norte 6 Nordeste 0 -- -- 92
2017-08-27 19:00:00 23.9 2 Sudoeste 6 Sudoeste 0 -- -- 88
2017-08-27 18:00:00 22.6 0 Calma 8 Noroeste 0.2 -- -- 92
2017-08-27 17:00:00 22.3 4 Nordeste 10 Nordeste 2 -- -- 90
2017-08-27 16:00:00 24.4 0 Calma 9 Oeste 0.6 -- -- 86
2017-08-27 15:00:00 26.9 4 Sudoeste 6 Sur 0 -- -- 79
2017-08-27 14:00:00 26.7 4 Sudoeste 6 Sur 0 -- -- 77
2017-08-27 13:00:00 26.6 2 Sur 8 Sur 0 -- -- 77
2017-08-27 12:00:00 25.7 4 Sur 8 Oeste 0 -- -- 74
2017-08-27 11:00:00 23.5 0 Calma 4 Nordeste 0 -- -- 79
2017-08-27 10:00:00 21.3 0 Calma 5 Sudoeste 0 -- -- 80
2017-08-27 09:00:00 17.6 0 Calma 3 Este 0 -- -- 94
2017-08-27 08:00:00 16.2 0 Calma 4 Este 0 -- -- 95
2017-08-27 07:00:00 16.6 0 Calma 5 Sudeste 0 -- -- 93
2017-08-27 06:00:00 17.2 0 Calma 5 Sudeste 0 -- -- 92
2017-08-27 05:00:00 18 0 Calma 4 Sur 0 -- -- 91
2017-08-27 04:00:00 18.3 0 Calma 6 Este 0 -- -- 89
2017-08-27 03:00:00 19.2 2 Sudeste 7 Oeste 0 -- -- 86
2017-08-27 02:00:00 20.4 3 Nordeste 14 Sudeste 0 -- -- 82
2017-08-27 01:00:00 19.7 3 Este 7 Este 0 -- -- 88
2017-08-27 00:00:00 21 0 Calma 11 Sudeste 0 -- -- 90
2017-08-26 23:00:00 21.1 2 Sudeste 9 Sur 0 -- -- 90
2017-08-26 22:00:00 21.3 2 Sudeste 5 Sur 0 -- -- 90
2017-08-26 21:00:00 22.7 0 Calma 18 Noroeste 0 -- -- 84
2017-08-26 20:00:00 23.4 9 Noroeste 21 Noroeste 0 -- -- 81
2017-08-26 19:00:00 25.4 9 Noroeste 18 Noroeste 0 -- -- 76
2017-08-26 18:00:00 27.1 2 Sudoeste 9 Oeste 0 -- -- 77
2017-08-26 17:00:00 26.6 5 Oeste 11 Noroeste 0 -- -- 78
2017-08-26 16:00:00 28.7 4 Norte 10 Noroeste 0 -- -- 71
2017-08-26 15:00:00 30.4 3 Nordeste 12 Sudeste 0 -- -- 63
2017-08-26 14:00:00 28.9 5 Este 10 Sudeste 0 -- -- 64
2017-08-26 13:00:00 26.5 0 Calma 0 Calma 0 -- -- 72
2017-08-26 12:00:00 24.1 0 Calma 0 Calma 0 -- -- 76
2017-08-26 11:00:00 21.9 0 Calma 0 Calma 0 -- -- 84
2017-08-26 10:00:00 20.7 0 Calma 0 Calma 0 -- -- 88
2017-08-26 09:00:00 19.7 0 Calma 0 Calma 0 -- -- 93
2017-08-26 08:00:00 19.3 0 Calma 0 Calma 0 -- -- 96
2017-08-26 07:00:00 19.1 0 Calma 0 Calma 0 -- -- 95
2017-08-26 06:00:00 19.7 0 Calma 3 Oeste 0 -- -- 95
2017-08-26 05:00:00 19.7 0 Calma 3 Sudoeste 0 -- -- 95
2017-08-26 04:00:00 19.8 0 Calma 3 Oeste 0 -- -- 95
2017-08-26 03:00:00 19.8 0 Calma 2 Sudoeste 0.2 -- -- 95
2017-08-26 02:00:00 19.8 2 Sudoeste 5 Sudoeste 0 -- -- 95
2017-08-26 01:00:00 19.8 2 Sur 3 Sur 0 -- -- 95
2017-08-26 00:00:00 20 0 Calma 4 Sur 0 -- -- 94
2017-08-25 23:00:00 20.4 2 Sur 8 Noroeste 0 -- -- 91
2017-08-25 22:00:00 21 4 Norte 11 Norte 0 -- -- 86
2017-08-25 21:00:00 21.4 4 Norte 12 Norte 0 -- -- 84
2017-08-25 20:00:00 21.8 5 Norte 13 Noroeste 0 -- -- 82
2017-08-25 19:00:00 22.3 6 Noroeste 20 Norte 0 -- -- 81
2017-08-25 18:00:00 23.2 7 Norte 18 Norte 0 -- -- 79
2017-08-25 17:00:00 24.2 10 Norte 24 Noroeste 0 -- -- 75
2017-08-25 16:00:00 25.6 12 Noroeste 23 Noroeste 0 -- -- 71
2017-08-25 15:00:00 25.9 11 Norte 22 Noroeste 0 -- -- 71
2017-08-25 14:00:00 25.8 12 Noroeste 22 Noroeste 0 -- -- 72
2017-08-25 13:00:00 26.2 11 Noroeste 23 Noroeste 0 -- -- 72
2017-08-25 12:00:00 25.7 0 Calma 0 Calma 0 -- -- 72
2017-08-25 11:00:00 23.1 0 Calma 0 Calma 0 -- -- 78
2017-08-25 10:00:00 21.1 0 Calma 0 Calma 0 -- -- 88
2017-08-25 09:00:00 19.5 0 Calma 0 Calma 0 -- -- 93
2017-08-25 08:00:00 18.8 0 Calma 0 Calma 0 -- -- 94
2017-08-25 07:00:00 19.2 0 Calma 0 Calma 0 -- -- 93
2017-08-25 06:00:00 19.8 0 Calma 0 Calma 0 -- -- 93
2017-08-25 05:00:00 19.8 0 Calma 3 Sudeste 0 -- -- 93
2017-08-25 04:00:00 19.9 0 Calma 2 Sudeste 0 -- -- 92
2017-08-25 03:00:00 20 0 Calma 3 Sudeste 0 -- -- 92
2017-08-25 02:00:00 20.2 0 Calma 5 Este 0 -- -- 91
2017-08-25 01:00:00 20.4 0 Calma 6 Sudeste 0 -- -- 91
2017-08-25 00:00:00 20.6 3 Este 7 Este 0 -- -- 90
2017-08-24 23:00:00 21 0 Calma 4 Nordeste 0 -- -- 87
2017-08-24 22:00:00 21.4 3 Norte 7 Noroeste 0 -- -- 85
2017-08-24 21:00:00 21.9 3 Nordeste 17 Nordeste 0 -- -- 83
2017-08-24 20:00:00 22.8 5 Noroeste 17 Nordeste 0 -- -- 79
2017-08-24 19:00:00 24.3 7 Norte 20 Nordeste 0 -- -- 69
2017-08-24 18:00:00 26.1 9 Noroeste 21 Norte 0 -- -- 65
2017-08-24 17:00:00 27.1 8 Noroeste 19 Noroeste 0 -- -- 64
2017-08-24 16:00:00 27.4 10 Noroeste 21 Noroeste 0 -- -- 65
2017-08-24 15:00:00 27.3 8 Norte 19 Noroeste 0 -- -- 66
2017-08-24 14:00:00 26.3 9 Norte 20 Norte 0 -- -- 67
2017-08-24 13:00:00 25.9 6 Este 15 Sudeste 0 -- -- 66
2017-08-24 12:00:00 24.6 7 Este 14 Este 0 -- -- 70
2017-08-24 11:00:00 23 0 Calma 0 Calma 0 -- -- 74
2017-08-24 10:00:00 22 0 Calma 0 Calma 0 -- -- 80
2017-08-24 09:00:00 19.5 0 Calma 0 Calma 0 -- -- 93
2017-08-24 08:00:00 18.7 0 Calma 0 Calma 0 -- -- 93
2017-08-24 07:00:00 19.2 0 Calma 0 Calma 0 -- -- 93
2017-08-24 06:00:00 19.4 0 Calma 3 Este 0 -- -- 92
2017-08-24 05:00:00 19.3 0 Calma 4 Nordeste 0 -- -- 92
2017-08-24 04:00:00 19.2 0 Calma 3 Norte 0 -- -- 92
2017-08-24 03:00:00 19.2 2 Sudeste 5 Sudeste 0 -- -- 92
2017-08-24 02:00:00 19 0 Calma 6 Este 0 -- -- 93
2017-08-24 01:00:00 18.8 0 Calma 4 Sudeste 0 -- -- 92
2017-08-24 00:00:00 19.5 0 Calma 5 Sur 0 -- -- 89
2017-08-23 23:00:00 20.5 2 Este 8 Noroeste 0 -- -- 86
2017-08-23 22:00:00 20.8 3 Norte 12 Norte 0 -- -- 85
2017-08-23 21:00:00 21.4 5 Norte 14 Noroeste 0 -- -- 81
2017-08-23 20:00:00 22.9 6 Noroeste 17 Noroeste 0 -- -- 76
2017-08-23 19:00:00 24.3 5 Norte 13 Noroeste 0 -- -- 73
2017-08-23 18:00:00 23.7 4 Noroeste 14 Noroeste 0 -- -- 74
2017-08-23 17:00:00 24.4 5 Norte 12 Nordeste 0 -- -- 72
2017-08-23 16:00:00 23.6 5 Noroeste 18 Noroeste 0 -- -- 73
2017-08-23 15:00:00 24 8 Norte 20 Noroeste 0 -- -- 71
2017-08-23 14:00:00 24.7 6 Norte 19 Noroeste 0 -- -- 73
2017-08-23 13:00:00 24.6 0 Calma 2 Sudeste 0 -- -- 67
2017-08-23 12:00:00 22.9 0 Calma 0 Calma 0 -- -- 73
2017-08-23 11:00:00 22 0 Calma 0 Calma 0 -- -- 77
2017-08-23 10:00:00 20.3 0 Calma 0 Calma 0 -- -- 88
2017-08-23 09:00:00 19.2 0 Calma 0 Calma 0 -- -- 91
2017-08-23 08:00:00 18.6 0 Calma 0 Calma 0 -- -- 93
2017-08-23 07:00:00 18.4 0 Calma 0 Calma 0 -- -- 94
2017-08-23 06:00:00 18.2 0 Calma 0 Calma 0 -- -- 94
2017-08-23 05:00:00 17.8 0 Calma 0 Calma 0 -- -- 93
2017-08-23 04:00:00 18.2 0 Calma 3 Sudeste 0 -- -- 92
2017-08-23 03:00:00 19.1 2 Sudeste 6 Sudeste 0 -- -- 89
2017-08-23 02:00:00 20.4 0 Calma 15 Noroeste 0 -- -- 86
2017-08-23 01:00:00 20.4 0 Calma 8 Noroeste 0 -- -- 89
2017-08-23 00:00:00 20.1 3 Sudeste 4 Sudeste 0 -- -- 91
2017-08-22 23:00:00 19.7 0 Calma 4 Este 0 -- -- 90
2017-08-22 22:00:00 20.2 2 Sudeste 7 Sudeste 0 -- -- 86
2017-08-22 21:00:00 22 2 Sur 9 Norte 0 -- -- 81
2017-08-22 20:00:00 23.6 4 Norte 15 Norte 0 -- -- 74
2017-08-22 19:00:00 24.5 6 Norte 20 Norte 0 -- -- 75
2017-08-22 18:00:00 26.1 10 Norte 23 Nordeste 0 -- -- 70
2017-08-22 17:00:00 27.7 8 Norte 22 Noroeste 0 -- -- 66
2017-08-22 16:00:00 28.4 8 Norte 22 Nordeste 0 -- -- 57
2017-08-22 15:00:00 29.1 9 Norte 23 Noroeste 0 -- -- 56
2017-08-22 14:00:00 30.1 9 Noroeste 28 Oeste 0 -- -- 54
2017-08-22 13:00:00 29.7 12 Norte 26 Norte 0 -- -- 57
2017-08-22 12:00:00 30.7 9 Noroeste 18 Oeste 0 -- -- 58
2017-08-22 11:00:00 28.6 3 Noroeste 5 Noroeste 0 -- -- 62
2017-08-22 10:00:00 24.8 2 Noroeste 5 Nordeste 0 -- -- 71
2017-08-22 09:00:00 20.6 0 Calma 5 Nordeste 0 -- -- 82
2017-08-22 08:00:00 18.5 2 Este 7 Este 0 -- -- 85
2017-08-22 07:00:00 18 0 Calma 10 Sudeste 0 -- -- 85
2017-08-22 06:00:00 17.8 2 Sudeste 10 Norte 0 -- -- 85
2017-08-22 05:00:00 16.9 2 Nordeste 9 Este 0 -- -- 88
2017-08-22 04:00:00 16.4 3 Sudeste 10 Sudoeste 0 -- -- 91
2017-08-22 03:00:00 15.8 2 Sudeste 5 Sudoeste 0 -- -- 96
2017-08-22 02:00:00 16 2 Este 4 Este 0 -- -- 95
2017-08-22 01:00:00 16.6 0 Calma 2 Sudeste 0 -- -- 94
2017-08-22 00:00:00 17.4 0 Calma 2 Sudoeste 0 -- -- 92